Time;durP1;ratioP1;P1;durP2;ratioP2;P2;SDS_P1;SDS_P2;PMS_P1;PMS_P2;Temp;Humidity;BMP_temperature;BMP_pressure;BME280_temperature;BME280_humidity;BME280_pressure;Samples;Min_cycle;Max_cycle;Signal;HPM_P1;HPM_P2
2023/01/12 00:02:12;;;;;;;4.30;2.10;;;;;;;-10.47;100.00;101970.05;105132;1261;69921;-58
2023/01/12 00:04:39;;;;;;;5.00;2.00;;;;;;;-10.44;100.00;101970.38;105123;1257;75175;-58
2023/01/12 00:07:11;;;;;;;8.60;2.10;;;;;;;-10.42;100.00;101973.05;104908;1259;62967;-59
2023/01/12 00:09:37;;;;;;;;;;;;;;;-10.39;100.00;101965.30;105152;1258;61787;-58
2023/01/12 00:12:06;;;;;;;5.50;1.60;;;;;;;-10.36;100.00;101964.27;105117;1254;75585;-58
2023/01/12 00:14:34;;;;;;;6.70;2.50;;;;;;;-10.34;100.00;101967.11;105187;1257;68911;-58
2023/01/12 00:17:02;;;;;;;8.30;2.30;;;;;;;-10.31;100.00;101966.27;105183;1257;74016;-58
2023/01/12 00:19:30;;;;;;;4.20;1.70;;;;;;;-10.28;100.00;101967.42;105176;1260;63345;-58
2023/01/12 00:22:08;;;;;;;6.90;2.20;;;;;;;-10.24;100.00;101969.08;105147;1257;61738;-58
2023/01/12 00:24:39;;;;;;;7.80;2.70;;;;;;;-10.21;100.00;101968.02;104912;1260;76252;-57
2023/01/12 00:27:09;;;;;;;7.20;2.80;;;;;;;-10.17;100.00;101970.35;104977;1260;68953;-57
2023/01/12 00:29:36;;;;;;;4.20;1.60;;;;;;;-10.15;100.00;101970.84;105060;1262;74967;-57
2023/01/12 00:32:04;;;;;;;5.20;1.90;;;;;;;-10.12;100.00;101974.36;105088;1262;63096;-57
2023/01/12 00:34:31;;;;;;;7.20;2.20;;;;;;;-10.10;100.00;101974.36;105248;1257;62658;-57
2023/01/12 00:36:59;;;;;;;10.40;1.90;;;;;;;-10.08;100.00;101975.67;105166;1260;76260;-59
2023/01/12 00:39:26;;;;;;;6.60;1.50;;;;;;;-10.05;100.00;101972.98;105185;1260;68608;-61
2023/01/12 00:47:38;;;;;;;7.00;1.70;;;;;;;-9.96;100.00;101987.04;105238;1256;61477;-59
2023/01/12 00:50:05;;;;;;;7.10;1.70;;;;;;;-9.94;100.00;101985.52;105337;1257;75879;-60
2023/01/12 00:52:32;;;;;;;5.80;1.80;;;;;;;-9.92;100.00;101980.64;105112;1259;69245;-57
2023/01/12 00:54:59;;;;;;;7.90;2.10;;;;;;;-9.91;100.00;101985.50;104875;1261;75096;-57
2023/01/12 00:57:27;;;;;;;3.90;1.40;;;;;;;-9.91;100.00;101990.38;105128;1260;62616;-59
2023/01/12 00:59:56;;;;;;;7.10;1.50;;;;;;;-9.91;100.00;101984.83;105122;1254;63245;-58
2023/01/12 01:02:28;;;;;;;7.20;1.70;;;;;;;-9.91;100.00;101984.15;105171;1254;76485;-57
2023/01/12 01:04:55;;;;;;;13.00;1.70;;;;;;;-9.91;100.00;101987.02;105164;1257;68694;-60
2023/01/12 01:07:22;;;;;;;3.90;1.40;;;;;;;-9.92;100.00;101989.55;105757;1260;74435;-59
2023/01/12 01:09:50;;;;;;;6.80;1.70;;;;;;;-9.91;100.00;101990.88;105291;1257;62679;-61
2023/01/12 01:12:17;;;;;;;5.20;1.80;;;;;;;-9.91;100.00;101986.51;105069;1259;62445;-58
2023/01/12 01:14:46;;;;;;;5.60;1.50;;;;;;;-9.91;100.00;101984.49;105191;1255;74307;-60
2023/01/12 01:17:13;;;;;;;7.00;1.90;;;;;;;-9.89;100.00;101985.83;105195;1257;69407;-59
2023/01/12 01:19:42;;;;;;;5.80;1.90;;;;;;;-9.87;100.00;101988.50;105416;1254;75077;-58
2023/01/12 01:22:09;;;;;;;7.70;1.90;;;;;;;-9.85;100.00;101989.33;105240;1256;63175;-60
2023/01/12 01:24:36;;;;;;;8.70;2.00;;;;;;;-9.85;100.00;101988.14;105550;1256;62449;-60
2023/01/12 01:27:04;;;;;;;6.00;2.10;;;;;;;-9.84;100.00;101992.86;105325;1254;74893;-60
2023/01/12 01:29:31;;;;;;;6.60;1.60;;;;;;;-9.84;100.00;101991.34;105139;1257;69438;-59
2023/01/12 01:32:00;;;;;;;4.90;2.00;;;;;;;-9.86;100.00;101995.88;105281;1255;74248;-61
2023/01/12 01:34:27;;;;;;;4.90;2.20;;;;;;;-9.86;100.00;101995.71;104889;1256;63707;-59
2023/01/12 01:36:54;;;;;;;4.80;1.70;;;;;;;-9.85;100.00;101992.84;105352;1254;61836;-59
2023/01/12 01:39:21;;;;;;;5.90;1.50;;;;;;;-9.86;100.00;101989.99;105246;1257;76232;-59
2023/01/12 01:41:48;;;;;;;4.60;1.60;;;;;;;-9.87;100.00;101990.18;105472;1259;68537;-61
2023/01/12 01:44:27;;;;;;;3.50;1.50;;;;;;;-9.88;100.00;101988.84;105138;1257;73967;-59
2023/01/12 01:47:04;;;;;;;4.80;1.80;;;;;;;-9.89;100.00;101989.01;105220;1261;63403;-59
2023/01/12 01:49:33;;;;;;;4.90;1.40;;;;;;;-9.89;100.00;101984.98;104978;1254;62502;-60
2023/01/12 01:52:28;;;;;;;5.20;1.80;;;;;;;-9.89;100.00;101989.67;104779;1257;75435;-61
2023/01/12 01:55:05;;;;;;;4.20;1.50;;;;;;;-9.90;100.00;101985.15;105253;1261;67643;-59
2023/01/12 01:57:38;;;;;;;5.10;1.80;;;;;;;-9.90;100.00;101978.27;105296;1257;75403;-59
2023/01/12 02:00:06;;;;;;;6.70;2.90;;;;;;;-9.91;100.00;101982.80;104982;1261;64286;-59
2023/01/12 02:02:33;;;;;;;5.70;1.80;;;;;;;-9.92;100.00;101981.82;105163;1256;61689;-60
2023/01/12 02:05:00;;;;;;;7.40;1.90;;;;;;;-9.91;100.00;101977.25;105683;1256;75294;-61
2023/01/12 02:07:27;;;;;;;4.20;1.40;;;;;;;-9.89;100.00;101967.64;105090;1261;69896;-62
2023/01/12 02:09:54;;;;;;;6.50;2.30;;;;;;;-9.88;100.00;101965.80;105013;1259;73829;-59
2023/01/12 02:18:09;;;;;;;7.10;2.20;;;;;;;-9.84;100.00;101954.67;105203;1257;76172;-60
2023/01/12 02:20:42;;;;;;;7.50;2.60;;;;;;;-9.79;100.00;101959.34;105615;1262;67739;-62
2023/01/12 02:23:47;;;;;;;4.70;2.00;;;;;;;-9.75;100.00;101960.99;105586;1260;75258;-60
2023/01/12 02:26:36;;;;;;;5.00;1.90;;;;;;;-9.71;100.00;101963.47;105330;1257;64627;-62
2023/01/12 02:29:28;;;;;;;9.00;2.20;;;;;;;-9.70;100.00;101960.77;105276;1261;62086;-60
2023/01/12 02:32:14;;;;;;;5.40;1.80;;;;;;;-9.70;100.00;101947.65;105255;1257;76382;-62
2023/01/12 02:34:55;;;;;;;7.40;1.70;;;;;;;-9.68;100.00;101950.01;105573;1259;68068;-60
2023/01/12 02:37:45;;;;;;;8.50;2.00;;;;;;;-9.66;100.00;101947.46;105504;1254;75097;-60
2023/01/12 02:40:34;;;;;;;7.90;1.70;;;;;;;-9.63;100.00;101947.42;105403;1260;63467;-60
2023/01/12 02:43:17;;;;;;;5.00;1.80;;;;;;;-9.63;100.00;101948.09;105032;1257;62464;-60
2023/01/12 02:45:53;;;;;;;4.60;1.70;;;;;;;-9.61;100.00;101946.58;105391;1254;75160;-59
2023/01/12 02:48:42;;;;;;;5.50;1.70;;;;;;;-9.61;100.00;101943.88;105433;1261;69665;-62
2023/01/12 02:52:01;;;;;;;9.40;2.10;;;;;;;-9.58;100.00;101943.86;105639;1259;75125;-60
2023/01/12 02:54:28;;;;;;;6.10;2.10;;;;;;;-9.58;100.00;101940.33;105725;1267;62642;-60
2023/01/12 02:56:58;;;;;;;6.20;1.50;;;;;;;-9.56;100.00;101937.27;105069;1262;62177;-62
2023/01/12 02:59:40;;;;;;;8.10;2.00;;;;;;;-9.54;100.00;101938.61;105017;1262;76035;-60
2023/01/12 03:02:12;;;;;;;5.70;1.50;;;;;;;-9.52;100.00;101939.94;105255;1255;69192;-60
2023/01/12 03:04:40;;;;;;;6.00;1.80;;;;;;;-9.51;100.00;101932.52;105146;1256;73457;-61
2023/01/12 03:07:30;;;;;;;4.00;1.70;;;;;;;-9.50;100.00;101930.17;105543;1260;62565;-62
2023/01/12 03:10:25;;;;;;;4.50;1.80;;;;;;;-9.50;100.00;101927.64;105050;1260;61369;-60
2023/01/12 03:12:53;;;;;;;4.70;1.70;;;;;;;-9.50;100.00;101930.84;104829;1256;75186;-60
2023/01/12 03:15:22;;;;;;;5.30;2.00;;;;;;;-9.50;100.00;101929.66;105189;1260;68563;-60
2023/01/12 03:18:12;;;;;;;6.10;2.10;;;;;;;-9.50;100.00;101930.84;105193;1257;74145;-60
2023/01/12 03:20:46;;;;;;;18.80;2.20;;;;;;;-9.50;100.00;101922.59;105066;1262;63443;-60
2023/01/12 03:23:26;;;;;;;7.50;1.90;;;;;;;-9.51;100.00;101918.21;105183;1255;61579;-59
2023/01/12 03:25:53;;;;;;;6.60;1.50;;;;;;;-9.52;100.00;101919.73;105511;1260;76201;-62
2023/01/12 03:28:20;;;;;;;6.20;2.20;;;;;;;-9.52;100.00;101913.69;104791;1255;69620;-60
2023/01/12 03:30:55;;;;;;;4.30;1.70;;;;;;;-9.52;100.00;101913.35;104983;1255;74127;-59
2023/01/12 03:33:23;;;;;;;8.20;2.70;;;;;;;-9.53;100.00;101913.19;105067;1257;64589;-59
2023/01/12 03:36:07;;;;;;;5.80;2.00;;;;;;;-9.53;100.00;101916.39;105378;1257;62662;-61
2023/01/12 03:38:52;;;;;;;5.60;1.50;;;;;;;-9.53;100.00;101915.54;105000;1261;75006;-59
2023/01/12 03:41:22;;;;;;;5.80;1.90;;;;;;;-9.53;100.00;101908.48;105321;1257;69766;-59
2023/01/12 03:43:50;;;;;;;6.90;1.40;;;;;;;-9.53;100.00;101909.50;105265;1256;76061;-59
2023/01/12 03:46:26;;;;;;;6.50;3.10;;;;;;;-9.52;100.00;101901.90;104914;1262;63388;-59
2023/01/12 03:49:28;;;;;;;6.40;2.10;;;;;;;-9.51;100.00;101903.23;104974;1262;60470;-60
2023/01/12 03:51:56;;;;;;;4.50;1.90;;;;;;;-9.50;100.00;101901.39;105434;1262;76052;-59
2023/01/12 03:54:23;;;;;;;4.50;1.70;;;;;;;-9.50;100.00;101900.88;105135;1261;67225;-59
2023/01/12 03:56:50;;;;;;;6.40;2.20;;;;;;;-9.49;100.00;101906.92;105131;1258;72870;-59
2023/01/12 03:59:17;;;;;;;4.00;1.80;;;;;;;-9.49;100.00;101906.41;105266;1261;63413;-59
2023/01/12 04:01:45;;;;;;;5.30;1.90;;;;;;;-9.48;100.00;101897.65;105175;1255;61602;-59
2023/01/12 04:04:12;;;;;;;6.10;2.00;;;;;;;-9.47;100.00;101892.59;105093;1255;76079;-61
2023/01/12 04:06:39;;;;;;;6.30;2.10;;;;;;;-9.45;100.00;101894.44;104865;1257;68353;-63
2023/01/12 04:09:07;;;;;;;6.70;2.30;;;;;;;-9.44;100.00;101880.77;105159;1257;75204;-62
2023/01/12 04:14:19;;;;;;;7.10;2.10;;;;;;;-9.41;100.00;101881.42;105094;1257;60738;-59
2023/01/12 04:16:47;;;;;;;4.00;1.90;;;;;;;-9.40;100.00;101884.45;105535;1257;76621;-60
2023/01/12 04:19:14;;;;;;;4.10;2.00;;;;;;;-9.39;100.00;101887.31;105128;1257;68521;-59
2023/01/12 04:24:27;;;;;;;5.00;1.80;;;;;;;-9.36;100.00;101882.37;105013;1262;63493;-60
2023/01/12 04:26:54;;;;;;;8.10;2.20;;;;;;;-9.35;100.00;101884.73;104848;1259;61601;-60
2023/01/12 04:29:21;;;;;;;4.50;1.30;;;;;;;-9.35;100.00;101886.58;104864;1262;76454;-58
2023/01/12 04:31:48;;;;;;;7.20;2.00;;;;;;;-9.34;100.00;101888.09;104977;1259;68799;-58
2023/01/12 04:34:15;;;;;;;6.80;1.90;;;;;;;-9.34;100.00;101885.55;105124;1257;75189;-61
2023/01/12 04:36:42;;;;;;;5.80;2.00;;;;;;;-9.32;100.00;101888.91;105440;1257;64545;-59
2023/01/12 04:39:09;;;;;;;6.00;1.80;;;;;;;-9.31;100.00;101881.50;105006;1257;61634;-60
2023/01/12 04:41:36;;;;;;;6.70;2.40;;;;;;;-9.28;100.00;101882.98;105253;1257;76283;-58
2023/01/12 04:44:04;;;;;;;6.10;2.20;;;;;;;-9.26;100.00;101872.69;104945;1262;68342;-58
2023/01/12 04:46:31;;;;;;;5.90;2.60;;;;;;;-9.25;100.00;101870.14;105212;1257;72771;-59
2023/01/12 04:48:58;;;;;;;6.70;2.20;;;;;;;-9.25;100.00;101868.29;105138;1256;63351;-59
2023/01/12 04:51:25;;;;;;;5.40;2.30;;;;;;;-9.26;100.00;101868.81;105221;1261;61720;-61
2023/01/12 04:53:52;;;;;;;8.60;2.70;;;;;;;-9.26;100.00;101865.45;105206;1256;75029;-60
2023/01/12 04:56:19;;;;;;;6.70;2.20;;;;;;;-9.28;100.00;101863.10;104945;1257;69580;-59
2023/01/12 04:58:47;;;;;;;5.90;2.00;;;;;;;-9.30;100.00;101861.45;104750;1257;75249;-59
2023/01/12 05:01:17;;;;;;;5.40;1.80;;;;;;;-9.31;100.00;101858.26;104929;1261;63087;-60
2023/01/12 05:03:45;;;;;;;5.20;1.80;;;;;;;-9.30;100.00;101861.45;105138;1261;63035;-58
2023/01/12 05:06:13;;;;;;;4.10;1.40;;;;;;;-9.31;100.00;101857.25;105196;1257;76171;-58
2023/01/12 05:11:27;;;;;;;5.60;1.90;;;;;;;-9.34;100.00;101848.54;105005;1257;74925;-58
2023/01/12 05:13:55;;;;;;;4.00;1.60;;;;;;;-9.35;100.00;101857.13;105045;1261;63457;-58
2023/01/12 05:16:22;;;;;;;5.80;2.10;;;;;;;-9.36;100.00;101857.80;105172;1259;61396;-59
2023/01/12 05:18:51;;;;;;;8.00;2.20;;;;;;;-9.35;100.00;101856.46;105187;1258;76443;-59
2023/01/12 05:21:20;;;;;;;7.90;1.80;;;;;;;-9.35;100.00;101859.66;105342;1257;69651;-60
2023/01/12 05:23:48;;;;;;;3.90;1.60;;;;;;;-9.36;100.00;101861.50;105125;1259;75068;-58
2023/01/12 05:26:15;;;;;;;4.70;2.10;;;;;;;-9.36;100.00;101858.64;105119;1262;64580;-60
2023/01/12 05:28:42;;;;;;;6.00;1.80;;;;;;;-9.37;100.00;101864.88;105202;1257;62522;-58
2023/01/12 05:31:12;;;;;;;5.90;1.70;;;;;;;-9.38;100.00;101857.84;105373;1256;75207;-60
2023/01/12 05:33:40;;;;;;;6.90;2.10;;;;;;;-9.38;100.00;101863.40;105052;1262;69427;-59
2023/01/12 05:36:10;;;;;;;6.90;2.10;;;;;;;-9.38;100.00;101858.00;104852;1257;75109;-61
2023/01/12 05:38:37;;;;;;;6.60;1.90;;;;;;;-9.37;100.00;101854.27;105053;1259;64290;-59
2023/01/12 05:41:06;;;;;;;8.50;1.80;;;;;;;-9.37;100.00;101861.34;105419;1257;62479;-60
2023/01/12 05:43:51;;;;;;;5.40;1.80;;;;;;;-9.36;100.00;101859.64;105105;1260;75881;-58
2023/01/12 05:46:29;;;;;;;6.10;2.00;;;;;;;-9.36;100.00;101855.28;105058;1262;68412;-59
2023/01/12 05:48:56;;;;;;;3.90;1.40;;;;;;;-9.35;100.00;101856.29;105299;1259;74967;-62
2023/01/12 05:51:25;;;;;;;6.30;1.60;;;;;;;-9.34;100.00;101852.06;105257;1262;64509;-59
2023/01/12 05:53:53;;;;;;;4.80;1.90;;;;;;;-9.34;100.00;101843.48;105195;1257;61804;-60
2023/01/12 05:56:24;;;;;;;5.20;1.80;;;;;;;-9.33;100.00;101847.16;105091;1261;76150;-59
2023/01/12 05:58:52;;;;;;;;;;;;;;;-9.30;100.00;101851.17;105074;1257;69860;-60
2023/01/12 06:01:19;;;;;;;6.30;2.20;;;;;;;-9.28;100.00;101846.94;105248;1259;75265;-60
2023/01/12 06:03:48;;;;;;;4.40;2.00;;;;;;;-9.27;100.00;101841.89;105924;1257;64497;-61
2023/01/12 06:06:16;;;;;;;4.70;2.00;;;;;;;-9.24;100.00;101838.14;105138;1261;61547;-59
2023/01/12 06:08:44;;;;;;;8.30;2.90;;;;;;;-9.21;100.00;101844.85;105151;1256;75242;-59
2023/01/12 06:13:55;;;;;;;5.70;1.90;;;;;;;-9.20;100.00;101839.44;105110;1261;69553;-60
2023/01/12 06:13:59;;;;;;;8.20;2.80;;;;;;;-9.16;100.00;101836.02;104715;1259;74285;-59
2023/01/12 06:16:26;;;;;;;7.40;2.30;;;;;;;-9.12;100.00;101835.98;105027;1262;63425;-59
2023/01/12 06:18:54;;;;;;;5.40;2.40;;;;;;;-9.09;100.00;101837.95;105240;1256;61765;-62
2023/01/12 06:21:22;;;;;;;6.00;2.30;;;;;;;-9.06;100.00;101841.28;105138;1256;76350;-59
2023/01/12 06:23:49;;;;;;;5.10;2.40;;;;;;;-9.04;100.00;101833.88;105181;1259;68518;-61
2023/01/12 06:26:16;;;;;;;5.70;1.90;;;;;;;-9.01;100.00;101830.96;105200;1257;73646;-59
2023/01/12 06:28:43;;;;;;;4.90;2.10;;;;;;;-8.98;100.00;101823.00;105178;1257;62522;-59
2023/01/12 06:31:11;;;;;;;5.90;2.20;;;;;;;-8.94;100.00;101822.29;105128;1257;62404;-60
2023/01/12 06:33:38;;;;;;;8.90;2.70;;;;;;;-8.91;100.00;101818.86;105166;1256;75284;-59
2023/01/12 06:36:07;;;;;;;6.30;2.20;;;;;;;-8.87;100.00;101822.17;104814;1260;67266;-60
2023/01/12 06:38:35;;;;;;;6.20;2.30;;;;;;;-8.84;100.00;101828.54;105201;1256;75048;-60
2023/01/12 06:41:07;;;;;;;5.90;2.40;;;;;;;-8.79;100.00;101828.30;105180;1258;63676;-60
2023/01/12 06:43:34;;;;;;;8.20;2.80;;;;;;;-8.78;100.00;101834.19;105384;1257;61316;-59
2023/01/12 06:46:01;;;;;;;5.50;2.20;;;;;;;-8.76;100.00;101828.09;105145;1256;75920;-60
2023/01/12 06:48:29;;;;;;;5.60;2.40;;;;;;;-8.74;100.00;101827.23;104916;1256;238399;-59
2023/01/12 06:51:05;;;;;;;16.50;4.40;;;;;;;-8.70;100.00;101828.17;105107;1262;74108;-58
2023/01/12 06:53:32;;;;;;;6.40;2.60;;;;;;;-8.66;100.00;101832.85;105116;1258;63165;-57
2023/01/12 06:55:59;;;;;;;7.60;3.20;;;;;;;-8.66;100.00;101831.15;105297;1262;61829;-58
2023/01/12 06:58:26;;;;;;;6.10;3.00;;;;;;;-8.64;100.00;101824.70;105127;1258;75049;-60
2023/01/12 07:00:53;;;;;;;5.80;2.60;;;;;;;-8.61;100.00;101820.97;105263;1260;69287;-62
2023/01/12 07:03:20;;;;;;;4.90;2.20;;;;;;;-8.56;100.00;101819.04;105011;1261;73926;-57
2023/01/12 07:05:48;;;;;;;7.00;2.90;;;;;;;-8.51;100.00;101820.84;104807;1257;64136;-58
2023/01/12 07:08:18;;;;;;;4.00;1.70;;;;;;;-8.49;100.00;101827.20;105013;1257;62812;-57
2023/01/12 07:10:45;;;;;;;5.60;2.40;;;;;;;-8.49;100.00;101826.36;105246;1257;76347;-60
2023/01/12 07:13:12;;;;;;;5.10;2.40;;;;;;;-8.51;100.00;101819.48;105196;1257;69522;-59
2023/01/12 07:15:39;;;;;;;8.00;3.40;;;;;;;-8.48;100.00;101815.89;104943;1260;74494;-59
2023/01/12 07:18:07;;;;;;;6.80;2.90;;;;;;;-8.44;100.00;101808.76;104791;1257;63541;-60
2023/01/12 07:20:34;;;;;;;6.20;2.30;;;;;;;-8.41;100.00;101808.20;105176;1261;61539;-60
2023/01/12 07:23:01;;;;;;;13.70;3.10;;;;;;;-8.38;100.00;101812.54;105253;1257;74914;-60
2023/01/12 07:25:28;;;;;;;7.00;2.90;;;;;;;-8.34;100.00;101812.45;105229;1261;69280;-59
2023/01/12 07:27:56;;;;;;;7.40;2.30;;;;;;;-8.31;100.00;101808.84;105458;1260;75221;-60
2023/01/12 07:30:24;;;;;;;6.30;2.90;;;;;;;-8.29;100.00;101805.46;105123;1262;63594;-58
2023/01/12 07:32:51;;;;;;;6.60;3.10;;;;;;;-8.25;100.00;101804.88;105478;1260;62903;-58
2023/01/12 07:35:18;;;;;;;11.30;4.50;;;;;;;-8.23;100.00;101807.02;105523;1259;76223;-60
2023/01/12 07:37:49;;;;;;;20.80;9.40;;;;;;;-8.23;100.00;101800.79;105415;1259;67259;-59
2023/01/12 07:40:16;;;;;;;30.30;12.30;;;;;;;-8.19;100.00;101803.60;105573;1259;74147;-60
2023/01/12 07:42:43;;;;;;;16.20;7.60;;;;;;;-8.13;100.00;101807.21;105845;1259;62225;-60
2023/01/12 07:45:11;;;;;;;15.10;8.50;;;;;;;-8.10;100.00;101813.04;105561;1258;63063;-60
2023/01/12 07:47:38;;;;;;;10.90;4.20;;;;;;;-8.04;100.00;101799.64;105371;1260;75122;-58
2023/01/12 07:50:06;;;;;;;8.80;3.70;;;;;;;-7.97;100.00;101799.02;105803;1256;68496;-61
2023/01/12 07:52:33;;;;;;;11.20;3.70;;;;;;;-7.90;100.00;101801.75;105280;1258;75066;-61
2023/01/12 07:55:00;;;;;;;7.50;2.70;;;;;;;-7.85;100.00;101802.34;105295;1259;62425;-62
2023/01/12 07:57:28;;;;;;;7.30;2.70;;;;;;;-7.77;100.00;101804.91;104887;1257;62751;-58
2023/01/12 07:59:55;;;;;;;8.30;2.90;;;;;;;-7.73;100.00;101795.86;105093;1257;75324;-59
2023/01/12 08:02:22;;;;;;;8.90;2.90;;;;;;;-7.68;100.00;101796.13;105361;1257;68544;-61
2023/01/12 08:04:49;;;;;;;9.20;2.80;;;;;;;-7.65;100.00;101792.50;104950;1260;74196;-59
2023/01/12 08:07:16;;;;;;;9.20;3.30;;;;;;;-7.58;100.00;101793.57;105005;1256;63619;-59
2023/01/12 08:09:44;;;;;;;9.20;3.10;;;;;;;-7.54;100.00;101787.41;105011;1256;61491;-59
2023/01/12 08:12:11;;;;;;;7.20;3.50;;;;;;;-7.51;100.00;101791.23;105422;1259;76340;-62
2023/01/12 08:14:39;;;;;;;9.60;3.10;;;;;;;-7.49;100.00;101783.76;105444;1260;69843;-61
2023/01/12 08:17:10;;;;;;;11.30;3.90;;;;;;;-7.45;100.00;101777.09;105338;1259;75178;-62
2023/01/12 08:19:43;;;;;;;6.90;3.00;;;;;;;-7.39;100.00;101771.09;105428;1263;63471;-58
2023/01/12 08:22:14;;;;;;;8.30;4.10;;;;;;;-7.34;100.00;101769.95;105136;1256;62789;-60
2023/01/12 08:24:45;;;;;;;8.00;3.30;;;;;;;-7.32;100.00;101768.56;104972;1256;76026;-59
2023/01/12 08:27:12;;;;;;;10.10;3.80;;;;;;;-7.28;100.00;101758.18;105098;1261;68525;-59
2023/01/12 08:29:42;;;;;;;11.40;3.70;;;;;;;-7.22;100.00;101760.59;105138;1260;75124;-59
2023/01/12 08:32:11;;;;;;;6.70;3.80;;;;;;;-7.18;100.00;101754.92;105201;1258;62393;-61
2023/01/12 08:34:40;;;;;;;7.30;4.10;;;;;;;-7.14;100.00;101754.84;105140;1263;60642;-62
2023/01/12 08:37:08;;;;;;;8.90;3.80;;;;;;;-7.13;100.00;101747.37;105131;1262;76501;-60
2023/01/12 08:39:35;;;;;;;34.80;14.90;;;;;;;-7.09;100.00;101743.41;104991;1261;68673;-61
2023/01/12 08:42:02;;;;;;;13.60;7.10;;;;;;;-7.02;100.00;101740.73;105073;1262;73988;-62
2023/01/12 08:44:35;;;;;;;7.10;3.60;;;;;;;-6.96;100.00;101739.56;105243;1263;61468;-61
2023/01/12 08:47:03;;;;;;;7.90;3.50;;;;;;;-6.90;100.00;101738.77;105396;1257;61752;-61
2023/01/12 08:49:30;;;;;;;9.50;4.10;;;;;;;-6.87;100.00;101740.70;104930;1261;75074;-61
2023/01/12 08:51:58;;;;;;;15.90;5.50;;;;;;;-6.82;100.00;101738.73;105219;1262;67413;-59
2023/01/12 08:54:25;;;;;;;8.60;3.90;;;;;;;-6.76;100.00;101741.64;104958;1261;75411;-61
2023/01/12 08:56:53;;;;;;;8.40;4.10;;;;;;;-6.71;100.00;101730.02;105129;1261;62308;-60
2023/01/12 08:59:20;;;;;;;8.10;3.90;;;;;;;-6.62;100.00;101727.45;105223;1260;61639;-62
2023/01/12 09:01:48;;;;;;;11.50;5.10;;;;;;;-6.54;100.00;101729.64;105495;1257;75114;-60
2023/01/12 09:04:15;;;;;;;7.30;3.80;;;;;;;-6.48;100.00;101719.69;105418;1260;69928;-60
2023/01/12 09:06:43;;;;;;;12.30;4.80;;;;;;;-6.40;100.00;101721.32;105322;1257;74268;-61
2023/01/12 09:09:15;;;;;;;10.00;4.30;;;;;;;-6.31;100.00;101713.48;105235;1260;62531;-62
2023/01/12 09:11:43;;;;;;;15.40;4.20;;;;;;;-6.23;100.00;101700.09;105262;1259;62841;-61
2023/01/12 09:14:10;;;;;;;10.70;4.90;;;;;;;-6.15;100.00;101703.27;105379;1261;74853;-60
2023/01/12 09:16:37;;;;;;;14.20;4.50;;;;;;;-6.12;100.00;101706.58;105346;1263;68645;-61
2023/01/12 09:19:05;;;;;;;7.60;3.80;;;;;;;-6.12;100.00;101696.40;105682;1261;74952;-63
2023/01/12 09:21:35;;;;;;;10.40;4.40;;;;;;;-6.09;100.00;101696.85;105138;1255;64343;-61
2023/01/12 09:24:03;;;;;;;8.00;3.70;;;;;;;-6.06;100.00;101697.10;105410;1255;61633;-63
2023/01/12 09:26:31;;;;;;;13.30;4.70;;;;;;;-6.07;100.00;101693.06;105478;1259;75291;-61
2023/01/12 09:28:59;;;;;;;10.10;4.90;;;;;;;-6.08;100.00;101698.34;105524;1259;68936;-61
2023/01/12 09:31:26;;;;;;;9.50;3.40;;;;;;;-6.05;100.00;101691.65;105326;1262;74146;-60
2023/01/12 09:33:54;;;;;;;9.70;4.20;;;;;;;-6.00;100.00;101691.19;105670;1259;62333;-60
2023/01/12 09:36:24;;;;;;;9.30;3.70;;;;;;;-5.98;100.00;101687.92;105259;1257;61662;-59
2023/01/12 09:38:51;;;;;;;8.90;3.80;;;;;;;-5.98;100.00;101682.17;104950;1260;75278;-62
2023/01/12 09:46:57;;;;;;;9.90;3.20;;;;;;;-5.98;100.00;101683.36;104795;1260;69578;-60
2023/01/12 09:47:21;;;;;;;10.80;3.90;;;;;;;-5.99;100.00;101680.14;104774;1261;62265;-60
2023/01/12 09:50:12;;;;;;;10.00;3.80;;;;;;;-5.97;100.00;101677.92;105202;1260;62551;-60
2023/01/12 09:52:43;;;;;;;7.80;3.10;;;;;;;-5.98;100.00;101681.34;105299;1259;75254;-62
2023/01/12 09:55:18;;;;;;;8.70;4.30;;;;;;;-6.00;100.00;101683.92;105058;1254;69286;-61
2023/01/12 09:58:03;;;;;;;6.30;3.40;;;;;;;-6.00;100.00;101673.93;104929;1260;75083;-62
2023/01/12 10:00:30;;;;;;;5.60;2.90;;;;;;;-5.98;100.00;101671.83;104894;1255;63570;-60
2023/01/12 10:03:13;;;;;;;8.60;4.00;;;;;;;-5.99;100.00;101668.64;105371;1270;61753;-60
2023/01/12 10:05:51;;;;;;;9.20;3.60;;;;;;;-5.98;100.00;101660.34;104918;1262;75081;-60
2023/01/12 10:08:38;;;;;;;10.20;4.00;;;;;;;-5.95;100.00;101662.27;104893;1261;69331;-61
2023/01/12 10:11:15;;;;;;;8.70;3.80;;;;;;;-5.92;100.00;101654.23;104951;1263;75181;-61
2023/01/12 10:14:20;;;;;;;10.80;4.50;;;;;;;-5.86;100.00;101653.16;105138;1263;63426;-61
2023/01/12 10:16:56;;;;;;;13.50;5.70;;;;;;;-5.80;100.00;101644.05;105002;1261;60509;-60
2023/01/12 10:19:55;;;;;;;14.90;5.80;;;;;;;-5.75;100.00;101637.28;105016;1266;74265;-61
2023/01/12 10:22:37;;;;;;;10.50;5.40;;;;;;;-5.73;100.00;101638.92;105001;1262;69363;-61
2023/01/12 10:25:47;;;;;;;14.40;6.40;;;;;;;-5.72;100.00;101637.37;104973;1258;74837;-60
2023/01/12 10:28:23;;;;;;;10.30;4.80;;;;;;;-5.70;100.00;101635.61;104700;1268;62515;-64
2023/01/12 10:30:50;;;;;;;10.10;4.00;;;;;;;-5.68;100.00;101630.81;104468;1268;62669;-63
2023/01/12 10:33:22;;;;;;;8.90;4.20;;;;;;;-5.70;100.00;101627.65;104785;1268;76096;-59
2023/01/12 10:36:15;;;;;;;8.80;4.10;;;;;;;-5.68;100.00;101625.92;105052;1262;69611;-61
2023/01/12 10:38:56;;;;;;;8.10;3.70;;;;;;;-5.69;100.00;101626.43;104993;1262;75515;-59
2023/01/12 10:41:27;;;;;;;7.80;4.80;;;;;;;-5.73;100.00;101628.45;104911;1262;62490;-59
2023/01/12 10:43:55;;;;;;;8.50;4.00;;;;;;;-5.78;100.00;101634.15;104906;1262;62350;-59
2023/01/12 10:46:23;;;;;;;11.00;4.60;;;;;;;-5.79;100.00;101629.81;105099;1261;76187;-60
2023/01/12 10:48:51;;;;;;;7.60;3.00;;;;;;;-5.78;100.00;101626.89;105021;1257;69851;-59
2023/01/12 10:51:21;;;;;;;12.60;4.40;;;;;;;-5.78;100.00;101628.59;104995;1262;74900;-60
2023/01/12 10:54:08;;;;;;;7.50;3.60;;;;;;;-5.80;100.00;101629.30;105460;1263;62485;-60
2023/01/12 10:56:38;;;;;;;13.50;4.10;;;;;;;-5.78;100.00;101633.32;105286;1261;61784;-59
2023/01/12 10:59:09;;;;;;;8.40;4.10;;;;;;;-5.76;100.00;101627.98;105340;1258;75622;-60
2023/01/12 11:01:50;;;;;;;9.00;3.70;;;;;;;-5.73;100.00;101618.77;105549;1261;69270;-61
2023/01/12 11:04:22;;;;;;;8.00;3.70;;;;;;;-5.66;100.00;101618.55;105320;1257;73991;-61
2023/01/12 11:07:00;;;;;;;11.90;3.80;;;;;;;-5.59;100.00;101617.67;105394;1260;62452;-61
2023/01/12 11:09:30;;;;;;;9.30;4.10;;;;;;;-5.52;100.00;101615.27;105506;1258;61640;-60
2023/01/12 11:12:00;;;;;;;8.70;3.50;;;;;;;-5.48;100.00;101614.82;105474;1257;75488;-60
2023/01/12 11:14:29;;;;;;;11.40;4.60;;;;;;;-5.48;100.00;101616.17;105264;1261;69411;-61
2023/01/12 11:17:03;;;;;;;13.40;3.80;;;;;;;-5.52;100.00;101619.00;105497;1257;73226;-61
2023/01/12 11:19:37;;;;;;;13.80;4.10;;;;;;;-5.53;100.00;101619.53;105547;1260;63851;-60
2023/01/12 11:22:16;;;;;;;9.50;4.50;;;;;;;-5.51;100.00;101618.97;104868;1260;62827;-62
2023/01/12 11:24:51;;;;;;;10.20;4.10;;;;;;;-5.48;100.00;101617.18;105054;1262;75374;-61
2023/01/12 11:27:38;;;;;;;8.60;4.00;;;;;;;-5.48;100.00;101609.22;104865;1257;69709;-61
2023/01/12 11:30:14;;;;;;;14.20;4.10;;;;;;;-5.51;100.00;101607.80;105413;1258;75238;-60
2023/01/12 11:33:07;;;;;;;10.30;4.70;;;;;;;-5.55;100.00;101605.55;105461;1257;63702;-62
2023/01/12 11:35:45;;;;;;;9.30;3.70;;;;;;;-5.58;100.00;101609.36;105188;1260;61470;-59
2023/01/12 11:38:17;;;;;;;7.00;3.50;;;;;;;-5.59;100.00;101602.80;105168;1258;75086;-61
2023/01/12 11:40:44;;;;;;;9.80;4.30;;;;;;;-5.63;100.00;101599.52;105213;1261;67654;-60
2023/01/12 11:46:17;;;;;;;9.40;4.30;;;;;;;-5.69;100.00;101597.30;105111;1260;62615;-61
2023/01/12 11:49:10;;;;;;;8.60;3.80;;;;;;;-5.70;100.00;101597.18;105045;1263;62339;-60
2023/01/12 11:51:37;;;;;;;13.00;4.70;;;;;;;-5.68;100.00;101596.95;105092;1257;75452;-61
2023/01/12 11:54:05;;;;;;;14.20;6.60;;;;;;;-5.66;100.00;101601.80;105084;1257;68621;-61